createdAt,value
2022-10-05T07:11:29.130Z,101256.00
2022-10-05T07:14:15.788Z,101242.00
2022-10-05T07:17:01.979Z,101252.00
2022-10-05T07:19:38.726Z,101206.00
2022-10-05T07:22:36.167Z,101258.00
2022-10-05T07:25:11.736Z,101248.00
2022-10-05T07:27:51.936Z,101249.00
2022-10-05T07:30:21.591Z,101252.00
2022-10-05T07:32:59.995Z,101249.00
2022-10-05T07:36:03.143Z,101219.00
2022-10-05T07:38:39.387Z,101249.00
2022-10-05T07:41:14.125Z,101233.00
2022-10-05T07:44:02.397Z,101249.00
2022-10-05T07:46:45.523Z,101239.00
2022-10-05T07:49:24.382Z,101232.00
2022-10-05T07:51:57.372Z,101223.00
2022-10-05T07:54:42.376Z,101236.00
2022-10-05T07:57:22.595Z,101246.00
2022-10-05T08:00:02.299Z,101218.00
2022-10-05T08:02:38.970Z,101227.00
2022-10-05T08:05:15.232Z,101216.00
2022-10-05T08:07:44.150Z,101191.00
2022-10-05T08:10:28.833Z,101236.00
2022-10-05T08:13:08.495Z,101233.00
2022-10-05T08:15:43.059Z,101225.00
2022-10-05T08:18:20.564Z,101229.00
2022-10-05T08:20:51.233Z,101230.00
2022-10-05T08:23:25.165Z,101214.00
2022-10-05T08:26:08.398Z,101206.00
2022-10-05T08:28:40.570Z,101201.00
2022-10-05T08:31:22.906Z,101202.00
2022-10-05T08:33:59.798Z,101205.00
2022-10-05T08:36:49.169Z,101205.00
2022-10-05T08:39:24.208Z,101205.00
2022-10-05T08:42:46.992Z,101201.00
2022-10-05T08:45:55.790Z,101205.00
2022-10-05T08:49:29.727Z,101202.00
2022-10-05T08:52:31.879Z,101205.00
2022-10-05T08:55:30.671Z,101202.00
2022-10-05T08:58:44.195Z,101197.00
2022-10-05T09:01:22.599Z,101201.00
2022-10-05T09:04:36.386Z,101197.00
2022-10-05T09:07:14.081Z,101197.00
2022-10-05T09:10:32.810Z,101189.00
2022-10-05T09:13:37.152Z,101175.00
2022-10-05T09:16:23.742Z,101154.00
2022-10-05T09:19:41.861Z,101181.00
2022-10-05T09:22:16.882Z,101190.00
2022-10-05T09:24:58.113Z,101182.00
2022-10-05T09:27:38.650Z,101166.00
2022-10-05T09:30:26.965Z,101181.00
2022-10-05T09:33:35.160Z,101164.00
2022-10-05T09:36:56.656Z,101172.00
2022-10-05T09:40:14.914Z,101165.00
2022-10-05T09:43:18.211Z,101159.00
2022-10-05T09:46:30.490Z,101162.00
2022-10-05T09:49:57.902Z,101162.00
2022-10-05T09:52:55.034Z,101159.00
2022-10-05T09:56:05.244Z,101151.00
2022-10-05T09:59:07.600Z,101159.00
2022-10-05T10:02:05.666Z,101141.00
2022-10-05T10:05:05.803Z,101143.00
2022-10-05T10:08:04.725Z,101147.00
2022-10-05T10:11:04.664Z,101156.00
2022-10-05T10:14:13.014Z,101150.00
2022-10-05T10:17:07.859Z,101157.00
2022-10-05T10:20:05.689Z,101134.00
2022-10-05T10:23:05.754Z,101146.00
2022-10-05T10:26:05.845Z,101143.00
2022-10-05T10:29:00.359Z,101142.00
2022-10-05T10:31:49.472Z,101145.00
2022-10-05T10:35:09.766Z,101146.00
2022-10-05T10:38:36.525Z,101139.00
2022-10-05T10:42:01.737Z,101132.00
2022-10-05T10:45:09.833Z,101135.00
2022-10-05T10:47:51.836Z,101132.00
2022-10-05T10:50:52.098Z,101126.00
2022-10-05T10:54:03.730Z,101130.00
2022-10-05T10:56:59.809Z,101122.00
2022-10-05T11:00:15.670Z,101127.00
2022-10-05T11:03:38.478Z,101119.00
2022-10-05T11:06:58.503Z,101126.00
2022-10-05T11:09:57.473Z,101128.00
2022-10-05T11:13:12.223Z,101123.00
2022-10-05T11:16:08.823Z,101114.00
2022-10-05T11:19:02.370Z,101117.00
2022-10-05T11:21:36.839Z,101113.00
2022-10-05T11:24:57.451Z,101111.00
2022-10-05T11:27:49.014Z,101115.00
2022-10-05T11:31:06.413Z,101109.00
2022-10-05T11:34:10.324Z,101107.00
2022-10-05T11:37:32.251Z,101101.00
2022-10-05T11:40:38.989Z,101100.00
2022-10-05T11:43:32.367Z,101094.00
2022-10-05T11:46:09.757Z,101095.00
2022-10-05T11:49:01.731Z,101102.00
2022-10-05T11:51:49.554Z,101092.00
2022-10-05T11:55:10.975Z,101089.00
2022-10-05T11:57:52.837Z,101093.00
2022-10-05T12:00:25.645Z,101094.00
2022-10-05T12:03:36.566Z,101090.00
2022-10-05T12:06:31.471Z,101086.00
2022-10-05T12:09:17.730Z,101090.00
2022-10-05T12:12:04.187Z,101072.00
2022-10-05T12:14:45.930Z,101076.00
2022-10-05T12:17:27.415Z,101080.00
2022-10-05T12:20:03.038Z,101078.00
2022-10-05T12:22:36.533Z,101076.00
2022-10-05T12:25:21.635Z,101075.00
2022-10-05T12:27:54.815Z,101069.00
2022-10-05T12:30:33.906Z,101068.00
2022-10-05T12:33:19.680Z,101070.00
2022-10-05T12:35:53.192Z,101072.00
2022-10-05T12:38:29.476Z,101062.00
2022-10-05T12:41:08.117Z,101057.00
2022-10-05T12:43:48.188Z,101060.00
2022-10-05T12:46:28.464Z,101060.00
2022-10-05T12:49:23.293Z,101069.00
2022-10-05T12:51:58.692Z,101052.00
2022-10-05T12:54:43.927Z,101052.00
2022-10-05T12:57:21.785Z,101047.00
2022-10-05T12:59:57.248Z,101044.00
2022-10-05T13:02:39.118Z,101039.00
2022-10-05T13:05:32.301Z,101039.00
2022-10-05T13:08:20.188Z,101044.00
2022-10-05T13:10:51.736Z,101043.00
2022-10-05T13:13:35.886Z,101048.00
2022-10-05T13:16:18.849Z,101053.00
2022-10-05T13:19:08.584Z,101038.00
2022-10-05T13:21:58.284Z,101023.00
2022-10-05T13:24:32.413Z,101029.00
2022-10-05T13:27:08.413Z,101019.00
2022-10-05T13:29:43.591Z,101016.00
2022-10-05T13:32:19.740Z,101015.00
2022-10-05T13:34:56.214Z,101016.00
2022-10-05T13:37:35.231Z,101019.00
2022-10-05T13:40:18.647Z,101024.00
2022-10-05T13:42:52.600Z,101023.00
2022-10-05T13:45:24.952Z,101009.00
2022-10-05T13:48:13.179Z,101006.00
2022-10-05T13:50:48.306Z,101013.00
2022-10-05T13:53:26.094Z,101008.00
2022-10-05T13:56:01.098Z,101010.00
2022-10-05T13:58:40.701Z,101015.00
2022-10-05T14:01:17.063Z,101007.00
2022-10-05T14:04:07.409Z,101016.00
2022-10-05T14:06:38.661Z,101010.00
2022-10-05T14:09:15.828Z,101014.00
2022-10-05T14:12:06.808Z,100992.00
2022-10-05T14:14:47.847Z,100996.00
2022-10-05T14:17:18.958Z,101003.00
2022-10-05T14:19:51.162Z,101006.00
2022-10-05T14:22:24.286Z,100998.00
2022-10-05T14:24:58.109Z,100997.00
2022-10-05T14:27:29.208Z,101000.00
2022-10-05T14:30:01.134Z,100996.00
2022-10-05T14:32:33.377Z,101001.00
2022-10-05T14:35:15.407Z,100991.00
2022-10-05T14:37:52.786Z,100990.00
2022-10-05T14:40:32.569Z,100978.00
2022-10-05T14:43:18.668Z,100967.00
2022-10-05T14:45:58.121Z,100982.00
2022-10-05T14:48:28.951Z,100976.00
2022-10-05T14:50:59.614Z,100970.00
2022-10-05T14:53:39.767Z,100963.00
2022-10-05T14:56:44.678Z,100969.00
2022-10-05T14:59:30.863Z,100978.00
2022-10-05T15:02:12.722Z,100981.00
2022-10-05T15:04:46.040Z,100972.00
2022-10-05T15:07:26.416Z,100973.00
2022-10-05T15:10:19.615Z,100978.00
2022-10-05T15:12:50.013Z,100985.00
2022-10-05T15:15:28.864Z,100984.00
2022-10-05T15:18:01.936Z,100996.00
2022-10-05T15:20:44.501Z,100976.00
2022-10-05T15:23:25.533Z,100995.00
2022-10-05T15:26:07.559Z,100997.00
2022-10-05T15:28:48.414Z,100993.00
2022-10-05T15:31:29.981Z,101002.00
2022-10-05T15:34:07.309Z,100998.00
2022-10-05T15:36:44.777Z,100998.00
2022-10-05T15:39:25.947Z,101015.00
2022-10-05T15:42:01.105Z,101022.00
2022-10-05T15:44:55.400Z,101022.00
2022-10-05T15:47:29.085Z,101027.00
2022-10-05T15:50:10.933Z,101031.00
2022-10-05T15:52:51.243Z,101035.00
2022-10-05T15:55:36.627Z,101039.00
2022-10-05T15:58:42.794Z,101052.00
2022-10-05T16:01:19.176Z,101046.00
2022-10-05T16:03:57.820Z,101044.00
2022-10-05T16:07:01.727Z,101039.00
2022-10-05T16:09:47.511Z,101023.00
2022-10-05T16:12:49.130Z,101036.00
2022-10-05T16:15:26.525Z,101041.00
2022-10-05T16:18:32.738Z,101038.00
2022-10-05T16:21:14.068Z,101035.00
2022-10-05T16:24:05.911Z,101043.00
2022-10-05T16:26:57.524Z,101038.00
2022-10-05T16:29:38.607Z,101034.00
2022-10-05T16:32:13.857Z,101030.00
2022-10-05T16:35:02.328Z,101023.00
2022-10-05T16:37:41.002Z,101025.00
2022-10-05T16:40:20.350Z,101026.00
2022-10-05T16:43:05.944Z,101029.00
2022-10-05T16:46:04.539Z,101035.00
2022-10-05T16:48:41.374Z,101031.00
2022-10-05T16:51:29.543Z,101048.00
2022-10-05T16:54:09.848Z,101039.00
2022-10-05T16:56:44.684Z,101051.00
2022-10-05T17:00:03.614Z,101058.00
2022-10-05T17:02:59.508Z,101052.00
2022-10-05T17:05:45.449Z,101047.00
2022-10-05T17:08:36.823Z,101045.00
2022-10-05T17:11:19.497Z,101050.00
2022-10-05T17:14:26.734Z,101048.00
2022-10-05T17:17:16.834Z,101045.00
2022-10-05T17:19:56.299Z,101048.00
2022-10-05T17:22:31.913Z,101053.00
2022-10-05T17:25:09.032Z,101063.00
2022-10-05T17:27:53.114Z,101057.00
2022-10-05T17:30:40.084Z,101077.00
2022-10-05T17:33:27.432Z,101074.00
2022-10-05T17:36:19.030Z,101073.00
2022-10-05T17:38:50.865Z,101085.00
2022-10-05T17:41:30.306Z,101084.00
2022-10-05T17:44:24.813Z,101073.00
2022-10-05T17:46:58.630Z,101056.00
2022-10-05T17:50:16.456Z,101084.00
2022-10-05T17:53:03.375Z,101089.00
2022-10-05T17:56:03.361Z,101082.00
2022-10-05T17:59:04.505Z,101087.00
2022-10-05T18:01:38.443Z,101096.00
2022-10-05T18:04:34.642Z,101108.00
2022-10-05T18:07:06.400Z,101101.00
2022-10-05T18:09:59.259Z,101112.00
2022-10-05T18:12:41.877Z,101108.00
2022-10-05T18:15:48.398Z,101105.00
2022-10-05T18:18:55.926Z,101101.00
2022-10-05T18:22:03.340Z,101090.00
2022-10-05T18:25:11.996Z,101091.00
2022-10-05T18:28:06.760Z,101095.00
2022-10-05T18:30:47.460Z,101093.00
2022-10-05T18:33:49.509Z,101090.00
2022-10-05T18:36:38.239Z,101096.00
2022-10-05T18:39:19.032Z,101101.00
2022-10-05T18:41:59.306Z,101105.00
2022-10-05T18:44:39.444Z,101110.00
2022-10-05T18:47:18.477Z,101114.00
2022-10-05T18:50:14.895Z,101106.00
2022-10-05T18:52:56.464Z,101111.00
2022-10-05T18:55:33.012Z,101106.00
2022-10-05T18:58:36.304Z,101105.00
2022-10-05T19:01:30.639Z,101113.00
2022-10-05T19:04:15.613Z,101116.00
2022-10-05T19:06:59.539Z,101099.00
2022-10-05T19:09:48.641Z,101116.00
2022-10-05T19:12:31.783Z,101109.00
2022-10-05T19:15:16.030Z,101117.00
2022-10-05T19:18:24.889Z,101119.00
2022-10-05T19:21:03.348Z,101103.00
2022-10-05T19:23:58.329Z,101127.00
2022-10-05T19:26:53.876Z,101130.00
2022-10-05T19:29:46.854Z,101138.00
2022-10-05T19:32:27.353Z,101127.00
2022-10-05T19:35:17.147Z,101136.00
2022-10-05T19:38:03.537Z,101142.00
2022-10-05T19:40:41.048Z,101114.00
2022-10-05T19:43:31.779Z,101153.00
2022-10-05T19:46:19.019Z,101155.00
2022-10-05T19:48:51.084Z,101152.00
2022-10-05T19:51:30.888Z,101138.00
2022-10-05T19:54:10.421Z,101151.00
2022-10-05T19:56:49.505Z,101164.00
2022-10-05T19:59:21.421Z,101168.00
2022-10-05T20:02:04.606Z,101181.00
2022-10-05T20:04:35.776Z,101187.00
2022-10-05T20:07:05.163Z,101192.00
2022-10-05T20:09:58.651Z,101186.00
2022-10-05T20:12:51.755Z,101217.00
2022-10-05T20:15:40.977Z,101230.00
2022-10-05T20:18:58.620Z,101212.00
2022-10-05T20:21:46.689Z,101265.00
2022-10-05T20:24:17.941Z,101277.00
2022-10-05T20:27:16.235Z,101283.00
2022-10-05T20:29:47.304Z,101282.00
2022-10-05T20:32:18.242Z,101276.00
2022-10-05T20:34:49.438Z,101300.00
2022-10-05T20:37:20.058Z,101301.00
2022-10-05T20:39:48.557Z,101299.00
2022-10-05T20:42:19.841Z,101300.00
2022-10-05T20:44:52.945Z,101311.00
2022-10-05T20:47:24.470Z,101307.00
2022-10-05T20:49:53.384Z,101335.00
2022-10-05T20:52:23.107Z,101336.00
2022-10-05T20:54:54.810Z,101334.00
2022-10-05T20:57:27.538Z,101355.00
2022-10-05T20:59:55.777Z,101366.00
2022-10-05T21:02:23.965Z,101361.00
2022-10-05T21:05:04.967Z,101370.00
2022-10-05T21:07:34.206Z,101377.00
2022-10-05T21:10:03.794Z,101382.00
2022-10-05T21:12:33.943Z,101388.00
2022-10-05T21:15:04.907Z,101393.00
2022-10-05T21:17:35.124Z,101411.00
2022-10-05T21:20:03.491Z,101425.00
2022-10-05T21:22:32.100Z,101395.00
2022-10-05T21:25:00.388Z,101419.00
2022-10-05T21:27:28.821Z,101406.00
2022-10-05T21:29:58.411Z,101357.00
2022-10-05T21:32:26.600Z,101417.00
2022-10-05T21:34:54.816Z,101419.00
2022-10-05T21:37:23.042Z,101413.00
2022-10-05T21:39:51.332Z,101413.00
2022-10-05T21:42:19.732Z,101432.00
2022-10-05T21:44:47.940Z,101440.00
2022-10-05T21:47:17.477Z,101432.00
2022-10-05T21:49:45.812Z,101434.00
2022-10-05T21:52:14.877Z,101430.00
2022-10-05T21:54:43.205Z,101448.00
2022-10-05T21:57:13.297Z,101453.00
2022-10-05T21:59:41.931Z,101457.00
2022-10-05T22:02:10.301Z,101430.00
2022-10-05T22:04:40.042Z,101455.00
2022-10-05T22:07:18.487Z,101475.00
2022-10-05T22:09:48.378Z,101468.00
2022-10-05T22:12:17.395Z,101472.00
2022-10-05T22:14:45.667Z,101483.00
2022-10-05T22:17:16.472Z,101496.00
2022-10-05T22:19:46.562Z,101495.00
2022-10-05T22:22:14.995Z,101505.00
2022-10-05T22:24:43.224Z,101497.00
2022-10-05T22:27:11.665Z,101514.00
2022-10-05T22:29:40.193Z,101525.00
2022-10-05T22:32:08.459Z,101523.00
2022-10-05T22:34:37.400Z,101532.00
2022-10-05T22:37:08.159Z,101507.00
2022-10-05T22:39:36.894Z,101534.00
2022-10-05T22:42:05.782Z,101528.00
2022-10-05T22:44:34.271Z,101535.00
2022-10-05T22:47:04.016Z,101537.00
2022-10-05T22:49:32.303Z,101545.00
2022-10-05T22:52:00.673Z,101552.00
2022-10-05T22:54:32.521Z,101558.00
2022-10-05T22:57:03.587Z,101525.00
2022-10-05T22:59:32.009Z,101568.00
2022-10-05T23:02:00.278Z,101527.00
2022-10-05T23:04:28.673Z,101576.00
2022-10-05T23:06:57.364Z,101584.00
2022-10-05T23:09:25.667Z,101576.00
2022-10-05T23:11:55.240Z,101587.00
2022-10-05T23:14:23.626Z,101574.00
2022-10-05T23:16:52.040Z,101608.00
2022-10-05T23:19:20.714Z,101616.00
2022-10-05T23:21:48.983Z,101590.00
2022-10-05T23:24:17.225Z,101590.00
2022-10-05T23:26:45.667Z,101598.00
2022-10-05T23:29:15.297Z,101625.00
2022-10-05T23:31:43.616Z,101624.00
2022-10-05T23:34:12.095Z,101626.00
2022-10-05T23:36:40.396Z,101630.00
2022-10-05T23:39:14.098Z,101603.00
2022-10-05T23:41:44.264Z,101641.00
2022-10-05T23:44:14.175Z,101621.00
2022-10-05T23:46:42.559Z,101637.00
2022-10-05T23:49:11.012Z,101643.00
2022-10-05T23:51:39.288Z,101647.00
2022-10-05T23:54:07.686Z,101660.00
2022-10-05T23:56:35.911Z,101669.00
2022-10-05T23:59:04.187Z,101675.00
